createdAt,value
2022-09-03T00:02:23.740Z,9.73
2022-09-03T00:07:31.851Z,9.66
2022-09-03T00:12:40.038Z,9.6
2022-09-03T00:17:48.313Z,9.44
2022-09-03T00:22:56.825Z,9.39
2022-09-03T00:28:04.101Z,9.33
2022-09-03T00:33:13.216Z,9.44
2022-09-03T00:38:20.509Z,9.4
2022-09-03T00:43:28.254Z,9.32
2022-09-03T00:48:36.632Z,9.22
2022-09-03T00:53:43.754Z,9.12
2022-09-03T00:58:53.065Z,9.18
2022-09-03T01:04:01.411Z,9.02
2022-09-03T01:09:09.326Z,8.88
2022-09-03T01:14:15.948Z,8.85
2022-09-03T01:19:23.885Z,8.96
2022-09-03T01:24:32.156Z,8.92
2022-09-03T01:29:38.886Z,8.98
2022-09-03T01:51:04.060Z,9.04
2022-09-03T01:51:04.085Z,9.04
2022-09-03T01:51:04.085Z,9.02
2022-09-03T01:51:04.085Z,9.02
2022-09-03T02:27:01.589Z,8.78
2022-09-03T02:27:01.616Z,8.74
2022-09-03T02:27:01.616Z,8.78
2022-09-03T02:27:01.616Z,8.74
2022-09-03T02:27:01.616Z,8.76
2022-09-03T02:27:01.616Z,8.76
2022-09-03T02:27:01.616Z,8.62
2022-09-03T02:27:01.616Z,8.68
2022-09-03T02:27:01.616Z,8.62
2022-09-03T02:27:01.616Z,8.68
2022-09-03T02:27:01.617Z,8.61
2022-09-03T02:27:01.617Z,8.61
2022-09-03T02:27:01.618Z,8.6
2022-09-03T02:27:01.618Z,8.52
2022-09-03T02:27:01.618Z,8.54
2022-09-03T02:27:01.618Z,8.6
2022-09-03T02:27:01.618Z,8.54
2022-09-03T02:27:05.737Z,8.52
2022-09-03T02:32:09.964Z,8.36
2022-09-03T02:37:17.279Z,8.22
2022-09-03T02:42:25.730Z,8.29
2022-09-03T02:47:32.746Z,8.42
2022-09-03T02:52:40.656Z,8.42
2022-09-03T02:57:48.473Z,8.36
2022-09-03T03:02:55.675Z,8.42
2022-09-03T03:08:04.050Z,8.3
2022-09-03T03:13:12.152Z,8.2
2022-09-03T03:18:19.352Z,8.02
2022-09-03T03:23:26.979Z,8.03
2022-09-03T03:28:34.185Z,8.11
2022-09-03T03:33:42.234Z,8.31
2022-09-03T03:38:49.711Z,8.26
2022-09-03T03:43:56.412Z,8.26
2022-09-03T03:49:04.043Z,8.31
2022-09-03T03:54:10.823Z,8.3
2022-09-03T03:59:19.744Z,8.23
2022-09-03T04:04:27.570Z,8.22
2022-09-03T04:09:35.645Z,8.16
2022-09-03T04:14:43.882Z,8.22
2022-09-03T04:19:51.750Z,8.31
2022-09-03T04:25:00.171Z,8.22
2022-09-03T04:30:07.099Z,8.1
2022-09-03T04:35:15.387Z,8.06
2022-09-03T04:40:22.711Z,8.1
2022-09-03T04:45:31.953Z,8.3
2022-09-03T04:50:40.568Z,8.52
2022-09-03T04:55:48.100Z,8.67
2022-09-03T05:00:55.992Z,8.75
2022-09-03T05:06:03.192Z,8.9
2022-09-03T05:11:10.387Z,9.12
2022-09-03T05:16:19.572Z,9.27
2022-09-03T05:21:27.318Z,9.4
2022-09-03T05:26:36.102Z,9.54
2022-09-03T05:31:43.622Z,12.85
2022-09-03T05:36:51.592Z,17.16
2022-09-03T05:41:59.674Z,19.6
2022-09-03T05:47:07.782Z,20.19
2022-09-03T05:52:16.139Z,20.9
2022-09-03T05:57:23.598Z,22.44
2022-09-03T06:02:31.307Z,23.1
2022-09-03T06:07:38.748Z,23.58
2022-09-03T06:12:45.976Z,23.6
2022-09-03T06:17:53.543Z,23.46
2022-09-03T06:23:01.898Z,22.47
2022-09-03T06:28:10.384Z,21.51
2022-09-03T06:33:16.475Z,20.54
2022-09-03T06:38:25.097Z,19.99
2022-09-03T06:43:32.168Z,19.38
2022-09-03T06:48:40.242Z,19.21
2022-09-03T06:53:47.141Z,19.14
2022-09-03T06:58:54.985Z,19.18
2022-09-03T07:04:02.464Z,19.07
2022-09-03T07:09:09.370Z,19.03
2022-09-03T07:14:17.465Z,18.78
2022-09-03T07:19:25.021Z,18.46
2022-09-03T07:24:31.621Z,17.92
2022-09-03T07:29:38.838Z,17.82
2022-09-03T07:34:46.069Z,18.11
2022-09-03T07:39:55.016Z,18.17
2022-09-03T07:45:03.395Z,18.43
2022-09-03T07:50:10.227Z,18.93
2022-09-03T07:55:18.591Z,19.23
2022-09-03T08:00:26.464Z,19.29
2022-09-03T08:05:34.329Z,19.4
2022-09-03T08:10:41.534Z,19.28
2022-09-03T08:15:50.371Z,19.29
2022-09-03T08:20:57.615Z,19.68
2022-09-03T08:26:05.201Z,19.8
2022-09-03T08:31:13.406Z,20.22
2022-09-03T08:36:21.376Z,20.44
2022-09-03T08:41:28.742Z,20.25
2022-09-03T08:46:36.516Z,20.44
2022-09-03T08:51:44.200Z,20.65
2022-09-03T08:56:52.580Z,21.06
2022-09-03T09:02:01.015Z,21.16
2022-09-03T09:07:08.783Z,21.46
2022-09-03T09:12:19.151Z,21.56
2022-09-03T09:17:26.616Z,21.38
2022-09-03T09:22:34.553Z,21.31
2022-09-03T09:27:41.268Z,21.34
2022-09-03T09:32:49.484Z,21.42
2022-09-03T09:39:28.571Z,21.7
2022-09-03T09:44:34.975Z,21.74
2022-09-03T09:49:42.980Z,21.82
2022-09-03T09:54:50.366Z,21.7
2022-09-03T09:59:58.533Z,21.7
2022-09-03T10:05:04.892Z,22.31
2022-09-03T10:10:13.248Z,22.38
2022-09-03T10:15:20.914Z,22.82
2022-09-03T10:20:28.990Z,22.92
2022-09-03T10:25:35.622Z,23.06
2022-09-03T10:30:44.335Z,22.94
2022-09-03T10:35:52.023Z,23.34
2022-09-03T10:41:00.675Z,23.47
2022-09-03T10:46:08.435Z,23.64
2022-09-03T10:51:15.699Z,23.7
2022-09-03T10:56:23.133Z,23.66
2022-09-03T11:01:30.486Z,24.14
2022-09-03T11:06:37.268Z,24.48
2022-09-03T11:11:44.670Z,24.38
2022-09-03T11:16:52.029Z,24.61
2022-09-03T11:21:59.571Z,23.82
2022-09-03T11:27:06.515Z,22.94
2022-09-03T11:32:14.274Z,22.6
2022-09-03T11:37:21.498Z,22.66
2022-09-03T11:42:29.962Z,23.44
2022-09-03T11:47:38.336Z,23.66
2022-09-03T11:52:45.100Z,23.62
2022-09-03T11:57:53.479Z,24.62
2022-09-03T12:03:01.520Z,25.1
2022-09-03T12:08:09.495Z,25.44
2022-09-03T12:13:17.273Z,24.94
2022-09-03T12:18:25.416Z,24.98
2022-09-03T12:23:33.661Z,25.57
2022-09-03T12:28:41.350Z,26.16
2022-09-03T12:33:49.465Z,25.7
2022-09-03T12:38:56.513Z,26.54
2022-09-03T12:44:04.723Z,26.32
2022-09-03T12:49:11.326Z,25.86
2022-09-03T12:54:19.103Z,25.62
2022-09-03T12:59:26.300Z,25.57
2022-09-03T13:04:34.110Z,25.39
2022-09-03T13:09:42.559Z,25.44
2022-09-03T13:14:50.385Z,26.06
2022-09-03T13:19:57.208Z,26.22
2022-09-03T13:25:04.948Z,25.54
2022-09-03T13:30:11.591Z,24.98
2022-09-03T13:35:18.002Z,24.61
2022-09-03T13:40:25.861Z,24.4
2022-09-03T13:45:32.419Z,24.12
2022-09-03T13:50:41.115Z,24.18
2022-09-03T13:55:48.148Z,24.26
2022-09-03T14:00:56.335Z,24.65
2022-09-03T14:06:03.320Z,24.67
2022-09-03T14:11:15.946Z,24.86
2022-09-03T14:16:22.710Z,24.52
2022-09-03T14:21:31.851Z,24.01
2022-09-03T14:26:39.390Z,23.66
2022-09-03T14:31:46.686Z,23.72
2022-09-03T14:36:54.024Z,23.97
2022-09-03T14:42:00.587Z,23.83
2022-09-03T14:47:08.830Z,23.62
2022-09-03T14:52:16.263Z,23.4
2022-09-03T14:57:22.845Z,23.26
2022-09-03T15:02:31.007Z,23.1
2022-09-03T15:07:39.492Z,22.88
2022-09-03T15:12:47.569Z,22.8
2022-09-03T15:18:03.934Z,22.79
2022-09-03T15:23:11.024Z,22.84
2022-09-03T15:28:18.232Z,22.92
2022-09-03T15:33:26.525Z,22.75
2022-09-03T15:38:35.478Z,22.7
2022-09-03T15:43:43.089Z,23.02
2022-09-03T15:48:51.360Z,24.3
2022-09-03T15:53:59.938Z,24.79
2022-09-03T15:59:09.687Z,25.16
2022-09-03T16:04:23.303Z,24.9
2022-09-03T16:09:33.375Z,24.06
2022-09-03T16:14:42.149Z,23.22
2022-09-03T16:19:50.062Z,22.74
2022-09-03T16:24:57.222Z,22.42
2022-09-03T16:30:05.024Z,22.01
2022-09-03T16:35:12.317Z,21.52
2022-09-03T16:40:20.587Z,21.01
2022-09-03T16:45:32.940Z,20.47
2022-09-03T16:50:41.405Z,19.99
2022-09-03T16:55:48.364Z,19.56
2022-09-03T17:00:55.962Z,19.22
2022-09-03T17:06:03.149Z,19.02
2022-09-03T17:11:12.165Z,18.88
2022-09-03T17:16:20.148Z,18.7
2022-09-03T17:21:27.379Z,18.54
2022-09-03T17:26:34.560Z,18.33
2022-09-03T17:31:42.867Z,18.12
2022-09-03T17:36:51.187Z,17.84
2022-09-03T17:41:58.021Z,17.65
2022-09-03T17:47:05.767Z,17.57
2022-09-03T17:52:14.095Z,17.56
2022-09-03T17:57:21.667Z,17.48
2022-09-03T18:02:30.235Z,17.44
2022-09-03T18:07:38.013Z,17.4
2022-09-03T18:12:46.142Z,17.43
2022-09-03T18:17:52.946Z,17.29
2022-09-03T18:23:00.882Z,17.21
2022-09-03T18:28:09.723Z,16.96
2022-09-03T18:33:17.270Z,16.78
2022-09-03T18:38:26.591Z,16.75
2022-09-03T18:43:33.965Z,16.7
2022-09-03T18:48:41.361Z,16.7
2022-09-03T18:53:49.069Z,16.64
2022-09-03T18:58:56.916Z,16.4
2022-09-03T19:04:05.248Z,16.32
2022-09-03T19:09:12.880Z,16.26
2022-09-03T19:14:20.705Z,16.4
2022-09-03T19:19:28.411Z,16.75
2022-09-03T19:24:36.156Z,16.88
2022-09-03T19:29:43.779Z,16.96
2022-09-03T19:34:51.733Z,16.84
2022-09-03T19:39:59.429Z,16.74
2022-09-03T19:45:06.927Z,16.64
2022-09-03T19:50:14.848Z,16.64
2022-09-03T19:55:23.153Z,16.64
2022-09-03T20:00:30.870Z,16.68
2022-09-03T20:05:38.406Z,16.8
2022-09-03T20:10:46.219Z,16.78
2022-09-03T20:15:53.871Z,16.71
2022-09-03T20:21:02.220Z,16.86
2022-09-03T20:26:09.548Z,16.92
2022-09-03T20:31:17.880Z,16.86
2022-09-03T20:36:25.662Z,16.78
2022-09-03T20:41:33.658Z,16.67
2022-09-03T20:46:40.258Z,16.62
2022-09-03T20:51:46.834Z,16.58
2022-09-03T20:56:55.055Z,16.6
2022-09-03T21:02:02.786Z,16.53
2022-09-03T21:07:11.624Z,16.49
2022-09-03T21:12:19.627Z,16.49
2022-09-03T21:17:27.621Z,16.52
2022-09-03T21:22:35.584Z,16.52
2022-09-03T21:27:43.464Z,16.52
2022-09-03T21:32:51.225Z,16.48
2022-09-03T21:37:57.379Z,16.52
2022-09-03T21:43:05.903Z,16.58
2022-09-03T21:48:13.113Z,16.54
2022-09-03T21:53:21.819Z,16.54
2022-09-03T21:58:29.753Z,16.53
2022-09-03T22:03:37.151Z,16.52
2022-09-03T22:08:43.776Z,16.49
2022-09-03T22:13:53.426Z,16.41
2022-09-03T22:19:00.096Z,16.4
2022-09-03T22:24:07.299Z,16.4
2022-09-03T22:29:15.211Z,16.4
2022-09-03T22:34:22.383Z,16.39
2022-09-03T22:39:29.581Z,16.38
2022-09-03T22:44:37.939Z,16.34
2022-09-03T22:49:45.933Z,16.36
2022-09-03T22:54:53.964Z,16.34
2022-09-03T23:00:02.078Z,16.33
2022-09-03T23:05:10.385Z,16.25
2022-09-03T23:10:18.328Z,16.18
2022-09-03T23:15:26.271Z,16.12
2022-09-03T23:20:33.562Z,16.08
2022-09-03T23:25:40.684Z,16.03
2022-09-03T23:30:48.047Z,16.08
2022-09-03T23:35:55.737Z,16.09
2022-09-03T23:41:03.398Z,16.01
2022-09-03T23:46:11.834Z,15.98
2022-09-03T23:51:20.274Z,15.92
2022-09-03T23:56:27.764Z,15.9
